createdAt,value
2023-04-01T00:00:10.773Z,0.45
2023-04-01T00:02:41.784Z,0.45
2023-04-01T00:05:11.580Z,0.35
2023-04-01T00:07:40.224Z,0.35
2023-04-01T00:10:09.638Z,0.60
2023-04-01T00:12:37.913Z,0.30
2023-04-01T00:15:07.876Z,0.85
2023-04-01T00:17:35.862Z,0.20
2023-04-01T00:20:03.973Z,0.40
2023-04-01T00:22:31.412Z,0.40
2023-04-01T00:24:59.257Z,0.52
2023-04-01T00:27:27.122Z,0.60
2023-04-01T00:29:54.707Z,0.70
2023-04-01T00:32:22.202Z,0.38
2023-04-01T00:34:53.521Z,0.65
2023-04-01T00:37:22.130Z,0.40
2023-04-01T00:39:49.734Z,0.40
2023-04-01T00:42:17.263Z,0.40
2023-04-01T00:44:49.042Z,0.40
2023-04-01T00:47:16.618Z,0.73
2023-04-01T00:49:47.563Z,0.57
2023-04-01T00:52:18.535Z,0.40
2023-04-01T00:54:49.028Z,0.43
2023-04-01T00:57:24.379Z,0.52
2023-04-01T00:59:55.295Z,1.00
2023-04-01T01:02:23.703Z,0.30
2023-04-01T01:04:51.199Z,0.40
2023-04-01T01:07:47.280Z,0.80
2023-04-01T01:10:24.880Z,0.30
2023-04-01T01:13:28.678Z,0.60
2023-04-01T01:16:14.787Z,0.50
2023-04-01T01:19:22.748Z,0.57
2023-04-01T01:22:07.837Z,0.30
2023-04-01T01:25:16.441Z,0.60
2023-04-01T01:27:55.682Z,0.90
2023-04-01T01:30:39.960Z,0.65
2023-04-01T01:33:38.481Z,0.43
2023-04-01T01:36:11.327Z,0.40
2023-04-01T01:38:39.491Z,0.50
2023-04-01T01:41:10.039Z,0.30
2023-04-01T01:43:44.102Z,0.50
2023-04-01T01:46:20.076Z,0.82
2023-04-01T01:48:50.140Z,0.40
2023-04-01T01:51:19.165Z,0.60
2023-04-01T01:53:46.618Z,0.73
2023-04-01T01:56:17.646Z,0.40
2023-04-01T01:58:49.838Z,0.32
2023-04-01T02:01:31.419Z,0.50
2023-04-01T02:04:08.304Z,0.73
2023-04-01T02:06:39.371Z,0.45
2023-04-01T02:09:08.850Z,0.60
2023-04-01T02:11:58.725Z,0.40
2023-04-01T02:14:30.707Z,0.57
2023-04-01T02:17:20.624Z,0.47
2023-04-01T02:19:52.694Z,0.50
2023-04-01T02:22:36.360Z,0.45
2023-04-01T02:25:08.094Z,0.38
2023-04-01T02:27:35.789Z,0.40
2023-04-01T02:30:04.280Z,0.40
2023-04-01T02:32:33.758Z,0.65
2023-04-01T02:35:04.305Z,0.68
2023-04-01T02:37:33.930Z,0.57
2023-04-01T02:40:08.451Z,0.70
2023-04-01T02:42:36.428Z,0.38
2023-04-01T02:45:04.682Z,0.50
2023-04-01T02:47:32.349Z,1.00
2023-04-01T02:49:59.948Z,0.40
2023-04-01T02:52:28.659Z,0.50
2023-04-01T02:54:58.170Z,0.63
2023-04-01T02:57:26.664Z,0.30
2023-04-01T02:59:54.168Z,0.88
2023-04-01T03:02:21.634Z,0.55
2023-04-01T03:22:13.750Z,0.93
2023-04-01T03:24:41.294Z,0.40
2023-04-01T03:27:09.032Z,0.60
2023-04-01T03:29:36.489Z,0.65
2023-04-01T03:32:04.064Z,0.60
2023-04-01T03:34:31.710Z,0.50
2023-04-01T03:36:59.399Z,0.82
2023-04-01T03:39:27.199Z,0.60
2023-04-01T03:41:56.604Z,0.70
2023-04-01T03:44:24.160Z,0.70
2023-04-01T03:46:54.379Z,0.40
2023-04-01T03:49:21.820Z,0.40
2023-04-01T03:51:49.421Z,1.33
2023-04-01T03:54:19.017Z,0.88
2023-04-01T03:56:46.986Z,0.60
2023-04-01T03:59:15.193Z,0.77
2023-04-01T04:01:43.029Z,0.50
2023-04-01T04:04:14.386Z,0.50
2023-04-01T04:09:09.933Z,0.50
2023-04-01T04:11:37.432Z,0.50
2023-04-01T04:14:05.016Z,0.50
2023-04-01T04:16:32.635Z,0.63
2023-04-01T04:19:04.468Z,0.50
2023-04-01T04:21:32.143Z,0.63
2023-04-01T04:24:01.803Z,0.35
2023-04-01T04:26:36.720Z,0.68
2023-04-01T04:29:04.681Z,0.68
2023-04-01T04:31:32.410Z,0.55
2023-04-01T04:34:02.264Z,0.50
2023-04-01T04:36:32.267Z,0.47
2023-04-01T04:39:02.970Z,0.50
2023-04-01T04:41:31.953Z,0.63
2023-04-01T04:43:59.726Z,0.50
2023-04-01T04:46:27.574Z,0.52
2023-04-01T04:49:01.816Z,0.45
2023-04-01T04:51:29.331Z,0.65
2023-04-01T04:53:56.900Z,0.50
2023-04-01T04:56:34.764Z,0.57
2023-04-01T04:59:08.256Z,0.40
2023-04-01T05:01:48.109Z,0.50
2023-04-01T05:04:15.706Z,0.43
2023-04-01T05:06:45.839Z,0.50
2023-04-01T05:09:13.370Z,0.80
2023-04-01T05:11:41.326Z,0.40
2023-04-01T05:14:16.725Z,0.40
2023-04-01T05:16:52.374Z,1.17
2023-04-01T05:19:20.671Z,0.43
2023-04-01T05:21:48.358Z,0.50
2023-04-01T05:24:17.290Z,0.43
2023-04-01T05:26:45.872Z,0.40
2023-04-01T05:29:13.739Z,0.80
2023-04-01T05:31:42.192Z,0.60
2023-04-01T05:34:09.722Z,0.50
2023-04-01T05:36:37.650Z,0.40
2023-04-01T05:39:05.223Z,0.50
2023-04-01T05:41:32.715Z,0.60
2023-04-01T05:44:00.421Z,0.50
2023-04-01T05:46:43.219Z,0.50
2023-04-01T05:49:21.077Z,0.30
2023-04-01T05:51:50.391Z,0.60
2023-04-01T05:54:18.128Z,0.40
2023-04-01T05:56:48.287Z,0.40
2023-04-01T05:59:16.859Z,0.47
2023-04-01T06:01:44.542Z,0.43
2023-04-01T06:04:18.296Z,0.88
2023-04-01T06:06:47.202Z,0.40
2023-04-01T06:09:21.063Z,0.60
2023-04-01T06:12:29.910Z,0.60
2023-04-01T06:15:38.717Z,0.75
2023-04-01T06:18:55.588Z,0.70
2023-04-01T06:21:47.730Z,0.40
2023-04-01T06:28:13.197Z,0.50
2023-04-01T06:31:19.570Z,0.38
2023-04-01T06:34:07.823Z,0.43
2023-04-01T06:37:12.226Z,0.50
2023-04-01T06:40:09.436Z,0.32
2023-04-01T06:43:03.006Z,0.50
2023-04-01T06:46:29.776Z,0.50
2023-04-01T06:50:08.969Z,0.45
2023-04-01T07:02:32.843Z,0.30
2023-04-01T07:05:02.006Z,0.32
2023-04-01T07:07:39.012Z,0.30
2023-04-01T07:10:23.459Z,0.60
2023-04-01T07:13:47.279Z,0.57
2023-04-01T07:16:46.258Z,0.50
2023-04-01T07:19:41.380Z,0.30
2023-04-01T07:22:32.230Z,0.47
2023-04-01T07:25:19.980Z,0.30
2023-04-01T07:28:02.946Z,0.68
2023-04-01T07:30:41.196Z,0.40
2023-04-01T07:33:22.766Z,0.75
2023-04-01T07:36:14.360Z,0.40
2023-04-01T07:39:11.486Z,0.40
2023-04-01T07:42:17.506Z,0.43
2023-04-01T07:45:19.820Z,0.40
2023-04-01T07:48:21.031Z,0.50
2023-04-01T07:51:28.828Z,0.40
2023-04-01T07:54:41.182Z,0.60
2023-04-01T08:00:25.448Z,0.63
2023-04-01T08:03:50.372Z,0.65
2023-04-01T08:06:32.357Z,0.40
2023-04-01T08:09:36.919Z,0.43
2023-04-01T08:13:07.474Z,0.50
2023-04-01T08:16:21.995Z,0.30
2023-04-01T08:19:57.819Z,0.35
2023-04-01T08:22:34.532Z,0.40
2023-04-01T08:25:08.824Z,0.30
2023-04-01T08:27:51.572Z,0.50
2023-04-01T08:30:29.208Z,0.33
2023-04-01T08:33:21.045Z,0.50
2023-04-01T08:36:08.074Z,0.32
2023-04-01T08:39:14.607Z,0.40
2023-04-01T08:42:29.872Z,0.70
2023-04-01T08:45:44.153Z,0.30
2023-04-01T08:49:16.007Z,0.30
2023-04-01T08:52:02.195Z,0.28
2023-04-01T08:55:18.410Z,0.45
2023-04-01T08:58:47.749Z,0.30
2023-04-01T09:02:01.894Z,0.30
2023-04-01T09:05:46.723Z,0.40
2023-04-01T09:15:15.935Z,0.30
2023-04-01T09:18:17.144Z,0.57
2023-04-01T09:21:17.929Z,0.38
2023-04-01T09:24:10.051Z,0.50
2023-04-01T09:27:26.441Z,0.30
2023-04-01T09:30:50.873Z,0.28
2023-04-01T09:33:57.031Z,0.40
2023-04-01T09:36:52.540Z,0.68
2023-04-01T09:40:17.128Z,0.20
2023-04-01T09:43:36.710Z,0.30
2023-04-01T09:46:41.169Z,0.30
2023-04-01T09:49:33.803Z,0.30
2023-04-01T09:52:39.639Z,0.10
2023-04-01T09:55:57.805Z,0.20
2023-04-01T09:58:55.875Z,0.20
2023-04-01T10:02:15.563Z,0.20
2023-04-01T10:05:33.041Z,0.20
2023-04-01T10:43:21.385Z,0.30
2023-04-01T10:46:21.562Z,0.25
2023-04-01T10:49:28.056Z,0.30
2023-04-01T11:00:33.505Z,0.25
2023-04-01T11:04:06.686Z,0.30
2023-04-01T11:07:34.762Z,0.65
2023-04-01T11:10:45.353Z,0.88
2023-04-01T11:13:52.242Z,0.57
2023-04-01T11:39:24.902Z,0.30
2023-04-01T11:42:39.379Z,0.30
2023-04-01T11:45:44.240Z,0.40
2023-04-01T11:48:44.278Z,0.20
2023-04-01T11:51:29.833Z,0.25
2023-04-01T11:54:20.440Z,0.20
2023-04-01T11:57:29.140Z,0.20
2023-04-01T12:00:32.700Z,0.30
2023-04-01T12:03:30.350Z,1.58
2023-04-01T12:06:37.055Z,0.20
2023-04-01T12:09:59.968Z,0.30
2023-04-01T12:12:58.147Z,0.20
2023-04-01T12:16:08.009Z,0.40
2023-04-01T12:18:43.866Z,0.10
2023-04-01T12:21:27.800Z,0.15
2023-04-01T12:31:18.230Z,0.30
2023-04-01T12:37:43.503Z,0.20
2023-04-01T12:40:39.574Z,0.30
2023-04-01T12:43:28.646Z,0.40
2023-04-01T12:46:19.538Z,0.30
2023-04-01T12:49:23.926Z,0.30
2023-04-01T12:52:23.038Z,0.50
2023-04-01T12:55:20.601Z,0.30
2023-04-01T12:58:14.275Z,0.20
2023-04-01T13:01:16.254Z,0.30
2023-04-01T13:04:29.643Z,0.20
2023-04-01T13:07:32.657Z,0.20
2023-04-01T13:10:26.403Z,0.30
2023-04-01T13:13:24.016Z,0.20
2023-04-01T13:16:06.672Z,0.43
2023-04-01T13:18:54.397Z,0.20
2023-04-01T13:22:19.234Z,0.10
2023-04-01T13:25:22.515Z,0.20
2023-04-01T13:27:57.795Z,0.32
2023-04-01T13:30:36.339Z,0.55
2023-04-01T13:36:55.180Z,0.85
2023-04-01T13:42:58.874Z,0.30
2023-04-01T13:45:47.910Z,0.20
2023-04-01T13:49:13.457Z,0.20
2023-04-01T13:52:27.859Z,0.55
2023-04-01T13:55:22.084Z,0.17
2023-04-01T13:58:26.823Z,0.20
2023-04-01T14:01:07.907Z,0.20
2023-04-01T14:04:14.699Z,0.08
2023-04-01T14:07:17.505Z,0.20
2023-04-01T14:10:10.353Z,0.20
2023-04-01T14:12:58.296Z,0.32
2023-04-01T14:15:52.214Z,0.22
2023-04-01T14:19:20.793Z,0.10
2023-04-01T14:22:01.094Z,0.20
2023-04-01T14:25:05.728Z,0.20
2023-04-01T14:28:00.486Z,0.25
2023-04-01T14:31:16.288Z,0.10
2023-04-01T14:34:21.259Z,0.45
2023-04-01T14:37:24.131Z,0.50
2023-04-01T14:40:27.572Z,0.30
2023-04-01T14:43:25.571Z,0.17
2023-04-01T14:52:31.479Z,0.10
2023-04-01T14:55:00.620Z,0.20
2023-04-01T14:57:36.149Z,0.10
2023-04-01T15:00:19.646Z,0.10
2023-04-01T15:12:49.103Z,0.17
2023-04-01T15:15:55.657Z,0.10
2023-04-01T15:18:54.522Z,0.10
2023-04-01T15:21:57.316Z,0.03
2023-04-01T15:25:22.729Z,0.20
2023-04-01T15:28:37.528Z,0.20
2023-04-01T15:31:54.017Z,0.10
2023-04-01T15:34:53.847Z,0.10
2023-04-01T15:37:56.027Z,0.10
2023-04-01T15:41:00.732Z,0.10
2023-04-01T15:43:53.337Z,0.20
2023-04-01T15:46:49.870Z,0.10
2023-04-01T15:49:58.414Z,0.10
2023-04-01T15:53:06.904Z,0.10
2023-04-01T15:56:42.428Z,0.13
2023-04-01T15:59:56.090Z,0.10
2023-04-01T16:03:05.383Z,0.20
2023-04-01T16:05:52.200Z,0.30
2023-04-01T16:08:48.233Z,0.20
2023-04-01T16:11:44.987Z,0.10
2023-04-01T16:14:58.677Z,0.20
2023-04-01T16:18:05.324Z,0.20
2023-04-01T16:21:13.040Z,0.10
2023-04-01T16:29:39.941Z,0.43
2023-04-01T16:32:50.879Z,0.20
2023-04-01T16:35:59.009Z,0.20
2023-04-01T16:38:47.125Z,0.25
2023-04-01T16:41:34.135Z,0.47
2023-04-01T16:44:24.165Z,0.40
2023-04-01T16:47:10.644Z,0.40
2023-04-01T16:49:40.531Z,0.30
2023-04-01T16:52:30.726Z,0.30
2023-04-01T16:55:48.696Z,0.20
2023-04-01T16:58:42.395Z,0.20
2023-04-01T17:01:42.114Z,0.20
2023-04-01T17:04:22.792Z,0.30
2023-04-01T17:06:59.819Z,0.20
2023-04-01T17:10:19.445Z,0.20
2023-04-01T17:13:37.857Z,0.30
2023-04-01T17:16:40.405Z,0.20
2023-04-01T17:51:57.150Z,14.88
2023-04-01T17:54:40.896Z,10.35
2023-04-01T17:57:43.217Z,9.65
2023-04-01T18:00:50.593Z,14.85
2023-04-01T18:04:02.095Z,9.90
2023-04-01T18:07:04.518Z,12.35
2023-04-01T18:10:26.464Z,10.63
2023-04-01T18:17:19.061Z,10.80
2023-04-01T18:20:16.274Z,10.73
2023-04-01T18:23:16.408Z,10.25
2023-04-01T18:25:49.354Z,10.60
2023-04-01T18:28:28.858Z,10.82
2023-04-01T18:31:11.040Z,10.73
2023-04-01T18:33:59.489Z,9.00
2023-04-01T18:36:52.235Z,7.70
2023-04-01T18:39:41.654Z,8.00
2023-04-01T18:42:35.964Z,8.85
2023-04-01T18:45:42.719Z,8.73
2023-04-01T18:48:33.840Z,7.65
2023-04-01T18:51:14.916Z,7.40
2023-04-01T18:53:53.981Z,5.82
2023-04-01T18:56:29.971Z,5.18
2023-04-01T18:59:30.653Z,5.00
2023-04-01T19:02:22.011Z,2.80
2023-04-01T19:05:20.040Z,2.00
2023-04-01T19:07:54.061Z,1.70
2023-04-01T19:10:49.710Z,1.90
2023-04-01T19:13:39.655Z,2.50
2023-04-01T19:16:49.752Z,2.38
2023-04-01T19:20:00.670Z,2.40
2023-04-01T19:23:36.592Z,2.05
2023-04-01T19:26:18.001Z,2.28
2023-04-01T19:29:19.070Z,2.65
2023-04-01T19:32:22.656Z,2.25
2023-04-01T19:35:31.619Z,2.45
2023-04-01T19:38:12.113Z,2.13
2023-04-01T19:41:01.673Z,2.05
2023-04-01T19:44:03.433Z,1.92
2023-04-01T19:46:51.381Z,1.98
2023-04-01T19:49:44.839Z,1.70
2023-04-01T19:52:46.624Z,1.83
2023-04-01T19:55:49.685Z,1.88
2023-04-01T19:58:34.818Z,2.00
2023-04-01T20:01:05.916Z,1.90
2023-04-01T20:03:52.304Z,2.72
2023-04-01T20:06:46.398Z,2.10
2023-04-01T20:10:00.374Z,2.42
2023-04-01T20:12:53.525Z,2.00
2023-04-01T20:15:28.596Z,3.13
2023-04-01T20:17:59.751Z,2.88
2023-04-01T20:20:30.364Z,3.67
2023-04-01T20:23:32.162Z,2.60
2023-04-01T20:26:12.254Z,3.35
2023-04-01T20:28:47.554Z,4.20
2023-04-01T20:31:48.628Z,3.47
2023-04-01T20:34:43.660Z,3.95
2023-04-01T20:37:52.213Z,3.00
2023-04-01T20:40:45.522Z,3.33
2023-04-01T20:43:31.925Z,3.15
2023-04-01T20:46:34.605Z,2.60
2023-04-01T20:52:47.585Z,2.47
2023-04-01T21:34:47.770Z,2.50
2023-04-01T21:37:42.353Z,2.92
2023-04-01T21:41:08.578Z,2.88
2023-04-01T21:44:19.865Z,3.28
2023-04-01T21:47:44.390Z,2.97
2023-04-01T21:50:45.209Z,2.88
2023-04-01T21:53:52.764Z,3.70
2023-04-01T21:56:36.167Z,3.45
2023-04-01T21:59:50.792Z,3.10
2023-04-01T22:03:16.391Z,3.72
2023-04-01T22:06:07.810Z,3.60
2023-04-01T22:09:00.921Z,4.40
2023-04-01T22:11:45.930Z,4.47
2023-04-01T22:14:59.118Z,3.97
2023-04-01T22:17:59.004Z,3.88
2023-04-01T22:20:52.829Z,3.83
2023-04-01T22:23:52.621Z,4.32
2023-04-01T22:26:41.975Z,4.00
2023-04-01T22:29:32.464Z,3.95
2023-04-01T22:32:25.776Z,4.13
2023-04-01T22:35:10.369Z,3.75
2023-04-01T22:38:22.396Z,4.57
2023-04-01T22:41:17.345Z,4.88
2023-04-01T22:43:46.323Z,4.95
2023-04-01T22:47:00.568Z,4.97
2023-04-01T22:49:36.246Z,5.18
2023-04-01T22:52:34.833Z,5.32
2023-04-01T22:55:13.942Z,5.03
2023-04-01T22:58:08.708Z,4.50
2023-04-01T23:00:46.465Z,5.35
2023-04-01T23:03:42.098Z,4.57
2023-04-01T23:06:26.288Z,5.53
2023-04-01T23:09:14.020Z,4.72
2023-04-01T23:12:10.926Z,5.50
2023-04-01T23:14:47.400Z,4.97
2023-04-01T23:18:00.453Z,4.88
2023-04-01T23:21:10.006Z,4.43
2023-04-01T23:24:02.009Z,3.88
2023-04-01T23:26:51.384Z,3.92
2023-04-01T23:29:20.420Z,4.88
2023-04-01T23:31:58.023Z,4.80
2023-04-01T23:34:36.765Z,4.22
2023-04-01T23:37:09.412Z,4.18
2023-04-01T23:39:58.810Z,3.92
2023-04-01T23:42:30.139Z,3.63
2023-04-01T23:45:03.832Z,3.03
2023-04-01T23:47:34.763Z,3.20
2023-04-01T23:50:11.914Z,2.95
2023-04-01T23:52:47.213Z,3.03
2023-04-01T23:55:19.197Z,3.10
2023-04-01T23:58:22.315Z,4.22
